メインページ
METAR-TAF:

METAR-TAF

空港 :

ダラス・フォートワース国際空港

ダラス / フォートワース, テキサス州, アメリカ合衆国

緯度: 32-53-49N, 経度: 097-01-19W, 海抜: 183m

現時点の気象観測

当レポートは1時間1分前の06:53(UTC)に作成
南/南西の風 14kt
気温 32°C
湿度 43%
気圧 1011 hPa
視程: 16.1km
高度18000ftの雲はほとんどない
高度30000ftの雲はほとんどない

METAR: KDFW 190653Z 20014KT 10SM FEW180 FEW300 32/18 A2985 RMK AO2 SLP096 T03170178

時間: 02:54 (07:54 UTC)

予報

当レポートは2時間24分前の05:30(UTC)に作成
予報は19日の 06時(UTC)から 20日の 12時(UTC)まで有効
の風 10kt
視程: 10km
高度18000ftの雲はほとんどない
高度30000ftの雲は散在している

TAF: KDFW 190530Z 1906/2012 18010KT P6SM FEW180 SCT300

4,000以上の空港の気象観測と天気予報(METAR報とTAF報)

利用可能な観測所は地図上に黄色い丸と赤い丸で示す。

丸の上にカーソルを重ねると観測所名を参照できる。

次にクリックすると気象観測と天気予報を参照できる。

マップの切り替え:黒色「×」印の緑ボタンをクリックして拡大、「-」印の緑ボタンをクリックして縮小、緑色の三角印をクリックして隣りの地図に切り替え


METAR-TAF: